Aviation Digital Data Service (ADDS)

Output produced by METARs form (0009 UTC 25 April 2019)
found at http://www.aviationweather.gov/metar/data/
 
METAR text: TNCE 242355Z AUTO 06008KT //// // ///////// 25/20 Q1015 RE//
Conditions at: TNCE (FDR ARPT/ORANJES, AN) observed 2355 UTC 24 April 2019
Temperature: 25.0°C (77°F)
Dewpoint: 20.0°C (68°F) [RH = 74%]
Pressure (altimeter): 29.97 inches Hg (1015.0 mb)
Winds: from the ENE (60 degrees) at 9 MPH (8 knots; 4.1 m/s)
Visibility: missing
Ceiling: unknown
Clouds: missing
Weather: no significant weather observed at this time

METAR text: TNCE 242255Z AUTO 05007KT 020V080 //// // ///////// 25/20 Q1015 RE//
Conditions at: TNCE (FDR ARPT/ORANJES, AN) observed 2255 UTC 24 April 2019
Temperature: 25.0°C (77°F)
Dewpoint: 20.0°C (68°F) [RH = 74%]
Pressure (altimeter): 29.97 inches Hg (1015.0 mb)
Winds: from the NE (50 degrees) at 8 MPH (7 knots; 3.6 m/s)
Visibility: missing
Ceiling: unknown
Clouds: missing
Weather: no significant weather observed at this time

METAR text: TNCE 242155Z AUTO 06008KT 030V090 //// // ///////// 26/20 Q1015 RE//
Conditions at: TNCE (FDR ARPT/ORANJES, AN) observed 2155 UTC 24 April 2019
Temperature: 26.0°C (79°F)
Dewpoint: 20.0°C (68°F) [RH = 70%]
Pressure (altimeter): 29.97 inches Hg (1015.0 mb)
Winds: from the ENE (60 degrees) at 9 MPH (8 knots; 4.1 m/s)
Visibility: missing
Ceiling: unknown
Clouds: missing
Weather: no significant weather observed at this time

METAR text: TNCE 242055Z AUTO 05009KT 010V080 //// // ///////// 27/20 Q1014 RE//
Conditions at: TNCE (FDR ARPT/ORANJES, AN) observed 2055 UTC 24 April 2019
Temperature: 27.0°C (81°F)
Dewpoint: 20.0°C (68°F) [RH = 66%]
Pressure (altimeter): 29.94 inches Hg (1014.0 mb)
Winds: from the NE (50 degrees) at 10 MPH (9 knots; 4.6 m/s)
Visibility: missing
Ceiling: unknown
Clouds: missing
Weather: no significant weather observed at this time

METAR text: TNCE 241955Z AUTO 06008KT 020V100 //// // ///////// 28/21 Q1014 RE//
Conditions at: TNCE (FDR ARPT/ORANJES, AN) observed 1955 UTC 24 April 2019
Temperature: 28.0°C (82°F)
Dewpoint: 21.0°C (70°F) [RH = 66%]
Pressure (altimeter): 29.94 inches Hg (1014.0 mb)
Winds: from the ENE (60 degrees) at 9 MPH (8 knots; 4.1 m/s)
Visibility: missing
Ceiling: unknown
Clouds: missing
Weather: no significant weather observed at this time

METAR text: TNCE 241855Z AUTO 05008KT 010V110 //// // ///////// 29/22 Q1014 RE//
Conditions at: TNCE (FDR ARPT/ORANJES, AN) observed 1855 UTC 24 April 2019
Temperature: 29.0°C (84°F)
Dewpoint: 22.0°C (72°F) [RH = 66%]
Pressure (altimeter): 29.94 inches Hg (1014.0 mb)
Winds: from the NE (50 degrees) at 9 MPH (8 knots; 4.1 m/s)
Visibility: missing
Ceiling: unknown
Clouds: missing
Weather: no significant weather observed at this time

METAR text: TNCE 241755Z AUTO 06009KT 020V100 //// // ///////// 27/21 Q1014 RE//
Conditions at: TNCE (FDR ARPT/ORANJES, AN) observed 1755 UTC 24 April 2019
Temperature: 27.0°C (81°F)
Dewpoint: 21.0°C (70°F) [RH = 70%]
Pressure (altimeter): 29.94 inches Hg (1014.0 mb)
Winds: from the ENE (60 degrees) at 10 MPH (9 knots; 4.6 m/s)
Visibility: missing
Ceiling: unknown
Clouds: missing
Weather: no significant weather observed at this time

METAR text: TNCE 241655Z AUTO 08010KT 040V110 //// // ///////// 27/20 Q1015 RE//
Conditions at: TNCE (FDR ARPT/ORANJES, AN) observed 1655 UTC 24 April 2019
Temperature: 27.0°C (81°F)
Dewpoint: 20.0°C (68°F) [RH = 66%]
Pressure (altimeter): 29.97 inches Hg (1015.0 mb)
Winds: from the E (80 degrees) at 12 MPH (10 knots; 5.1 m/s)
Visibility: missing
Ceiling: unknown
Clouds: missing
Weather: no significant weather observed at this time

METAR text: TNCE 241555Z AUTO 08012KT 030V130 //// // ///////// 29/21 Q1015 RE//
Conditions at: TNCE (FDR ARPT/ORANJES, AN) observed 1555 UTC 24 April 2019
Temperature: 29.0°C (84°F)
Dewpoint: 21.0°C (70°F) [RH = 62%]
Pressure (altimeter): 29.97 inches Hg (1015.0 mb)
Winds: from the E (80 degrees) at 14 MPH (12 knots; 6.2 m/s)
Visibility: missing
Ceiling: unknown
Clouds: missing
Weather: no significant weather observed at this time

METAR text: TNCE 241455Z AUTO 08012KT 030V120 //// // ///////// 29/20 Q1016 RE//
Conditions at: TNCE (FDR ARPT/ORANJES, AN) observed 1455 UTC 24 April 2019
Temperature: 29.0°C (84°F)
Dewpoint: 20.0°C (68°F) [RH = 58%]
Pressure (altimeter): 30.00 inches Hg (1016.0 mb)
Winds: from the E (80 degrees) at 14 MPH (12 knots; 6.2 m/s)
Visibility: missing
Ceiling: unknown
Clouds: missing
Weather: no significant weather observed at this time

METAR text: TNCE 241355Z AUTO 07011KT 030V100 //// // ///////// 29/20 Q1016 RE//
Conditions at: TNCE (FDR ARPT/ORANJES, AN) observed 1355 UTC 24 April 2019
Temperature: 29.0°C (84°F)
Dewpoint: 20.0°C (68°F) [RH = 58%]
Pressure (altimeter): 30.00 inches Hg (1016.0 mb)
Winds: from the ENE (70 degrees) at 13 MPH (11 knots; 5.7 m/s)
Visibility: missing
Ceiling: unknown
Clouds: missing
Weather: no significant weather observed at this time

METAR text: TNCE 241255Z AUTO 07010KT 030V130 //// // ///////// 28/20 Q1015 RE//
Conditions at: TNCE (FDR ARPT/ORANJES, AN) observed 1255 UTC 24 April 2019
Temperature: 28.0°C (82°F)
Dewpoint: 20.0°C (68°F) [RH = 62%]
Pressure (altimeter): 29.97 inches Hg (1015.0 mb)
Winds: from the ENE (70 degrees) at 12 MPH (10 knots; 5.1 m/s)
Visibility: missing
Ceiling: unknown
Clouds: missing
Weather: no significant weather observed at this time

METAR text: TNCE 241155Z AUTO 09010KT 040V130 //// // ///////// 27/19 Q1015 RE//
Conditions at: TNCE (FDR ARPT/ORANJES, AN) observed 1155 UTC 24 April 2019
Temperature: 27.0°C (81°F)
Dewpoint: 19.0°C (66°F) [RH = 62%]
Pressure (altimeter): 29.97 inches Hg (1015.0 mb)
Winds: from the E (90 degrees) at 12 MPH (10 knots; 5.1 m/s)
Visibility: missing
Ceiling: unknown
Clouds: missing
Weather: no significant weather observed at this time

METAR text: TNCE 241055Z AUTO 09007KT 040V130 //// // ///////// 26/20 Q1015 RE//
Conditions at: TNCE (FDR ARPT/ORANJES, AN) observed 1055 UTC 24 April 2019
Temperature: 26.0°C (79°F)
Dewpoint: 20.0°C (68°F) [RH = 70%]
Pressure (altimeter): 29.97 inches Hg (1015.0 mb)
Winds: from the E (90 degrees) at 8 MPH (7 knots; 3.6 m/s)
Visibility: missing
Ceiling: unknown
Clouds: missing
Weather: no significant weather observed at this time

METAR text: TNCE 240955Z AUTO 29004KT 240V040 //// // ///////// 23/19 Q1014 RE//
Conditions at: TNCE (FDR ARPT/ORANJES, AN) observed 0955 UTC 24 April 2019
Temperature: 23.0°C (73°F)
Dewpoint: 19.0°C (66°F) [RH = 78%]
Pressure (altimeter): 29.94 inches Hg (1014.0 mb)
Winds: from the WNW (290 degrees) at 5 MPH (4 knots; 2.1 m/s)
Visibility: missing
Ceiling: unknown
Clouds: missing
Weather: no significant weather observed at this time

METAR text: TNCE 240855Z AUTO 08004KT 040V110 //// // ///////// 23/19 Q1013 RE//
Conditions at: TNCE (FDR ARPT/ORANJES, AN) observed 0855 UTC 24 April 2019
Temperature: 23.0°C (73°F)
Dewpoint: 19.0°C (66°F) [RH = 78%]
Pressure (altimeter): 29.91 inches Hg (1013.0 mb)
Winds: from the E (80 degrees) at 5 MPH (4 knots; 2.1 m/s)
Visibility: missing
Ceiling: unknown
Clouds: missing
Weather: no significant weather observed at this time

METAR text: TNCE 240755Z AUTO 08004KT 040V120 //// // ///////// 23/19 Q1013 RE//
Conditions at: TNCE (FDR ARPT/ORANJES, AN) observed 0755 UTC 24 April 2019
Temperature: 23.0°C (73°F)
Dewpoint: 19.0°C (66°F) [RH = 78%]
Pressure (altimeter): 29.91 inches Hg (1013.0 mb)
Winds: from the E (80 degrees) at 5 MPH (4 knots; 2.1 m/s)
Visibility: missing
Ceiling: unknown
Clouds: missing
Weather: no significant weather observed at this time

METAR text: TNCE 240655Z AUTO 08006KT //// // ///////// 23/19 Q1013 RE//
Conditions at: TNCE (FDR ARPT/ORANJES, AN) observed 0655 UTC 24 April 2019
Temperature: 23.0°C (73°F)
Dewpoint: 19.0°C (66°F) [RH = 78%]
Pressure (altimeter): 29.91 inches Hg (1013.0 mb)
Winds: from the E (80 degrees) at 7 MPH (6 knots; 3.1 m/s)
Visibility: missing
Ceiling: unknown
Clouds: missing
Weather: no significant weather observed at this time

METAR text: TNCE 240555Z AUTO 07006KT 030V100 //// // ///////// 24/19 Q1014 RE//
Conditions at: TNCE (FDR ARPT/ORANJES, AN) observed 0555 UTC 24 April 2019
Temperature: 24.0°C (75°F)
Dewpoint: 19.0°C (66°F) [RH = 74%]
Pressure (altimeter): 29.94 inches Hg (1014.0 mb)
Winds: from the ENE (70 degrees) at 7 MPH (6 knots; 3.1 m/s)
Visibility: missing
Ceiling: unknown
Clouds: missing
Weather: no significant weather observed at this time

METAR text: TNCE 240455Z AUTO 07006KT 040V110 //// // ///////// 24/19 Q1014 RE//
Conditions at: TNCE (FDR ARPT/ORANJES, AN) observed 0455 UTC 24 April 2019
Temperature: 24.0°C (75°F)
Dewpoint: 19.0°C (66°F) [RH = 74%]
Pressure (altimeter): 29.94 inches Hg (1014.0 mb)
Winds: from the ENE (70 degrees) at 7 MPH (6 knots; 3.1 m/s)
Visibility: missing
Ceiling: unknown
Clouds: missing
Weather: no significant weather observed at this time

METAR text: TNCE 240355Z AUTO 06007KT 010V090 //// // ///////// 24/19 Q1015 RE//
Conditions at: TNCE (FDR ARPT/ORANJES, AN) observed 0355 UTC 24 April 2019
Temperature: 24.0°C (75°F)
Dewpoint: 19.0°C (66°F) [RH = 74%]
Pressure (altimeter): 29.97 inches Hg (1015.0 mb)
Winds: from the ENE (60 degrees) at 8 MPH (7 knots; 3.6 m/s)
Visibility: missing
Ceiling: unknown
Clouds: missing
Weather: no significant weather observed at this time

METAR text: TNCE 240255Z AUTO 06007KT //// // ///////// 24/19 Q1015 RE//
Conditions at: TNCE (FDR ARPT/ORANJES, AN) observed 0255 UTC 24 April 2019
Temperature: 24.0°C (75°F)
Dewpoint: 19.0°C (66°F) [RH = 74%]
Pressure (altimeter): 29.97 inches Hg (1015.0 mb)
Winds: from the ENE (60 degrees) at 8 MPH (7 knots; 3.6 m/s)
Visibility: missing
Ceiling: unknown
Clouds: missing
Weather: no significant weather observed at this time

METAR text: TNCE 240155Z AUTO 05008KT 010V090 //// // ///////// 25/19 Q1015 RE//
Conditions at: TNCE (FDR ARPT/ORANJES, AN) observed 0155 UTC 24 April 2019
Temperature: 25.0°C (77°F)
Dewpoint: 19.0°C (66°F) [RH = 69%]
Pressure (altimeter): 29.97 inches Hg (1015.0 mb)
Winds: from the NE (50 degrees) at 9 MPH (8 knots; 4.1 m/s)
Visibility: missing
Ceiling: unknown
Clouds: missing
Weather: no significant weather observed at this time

METAR text: TNCE 240055Z AUTO 05008KT 020V080 //// // ///////// 25/20 Q1014 RE//
Conditions at: TNCE (FDR ARPT/ORANJES, AN) observed 0055 UTC 24 April 2019
Temperature: 25.0°C (77°F)
Dewpoint: 20.0°C (68°F) [RH = 74%]
Pressure (altimeter): 29.94 inches Hg (1014.0 mb)
Winds: from the NE (50 degrees) at 9 MPH (8 knots; 4.1 m/s)
Visibility: missing
Ceiling: unknown
Clouds: missing
Weather: no significant weather observed at this time

METAR text: TNCE 232355Z AUTO 05008KT 010V080 //// // ///////// 25/19 Q1014 RE//
Conditions at: TNCE (FDR ARPT/ORANJES, AN) observed 2355 UTC 23 April 2019
Temperature: 25.0°C (77°F)
Dewpoint: 19.0°C (66°F) [RH = 69%]
Pressure (altimeter): 29.94 inches Hg (1014.0 mb)
Winds: from the NE (50 degrees) at 9 MPH (8 knots; 4.1 m/s)
Visibility: missing
Ceiling: unknown
Clouds: missing
Weather: no significant weather observed at this time

METAR text: TNCE 232255Z AUTO 07007KT 040V100 //// // ///////// 25/19 Q1014 RE//
Conditions at: TNCE (FDR ARPT/ORANJES, AN) observed 2255 UTC 23 April 2019
Temperature: 25.0°C (77°F)
Dewpoint: 19.0°C (66°F) [RH = 69%]
Pressure (altimeter): 29.94 inches Hg (1014.0 mb)
Winds: from the ENE (70 degrees) at 8 MPH (7 knots; 3.6 m/s)
Visibility: missing
Ceiling: unknown
Clouds: missing
Weather: no significant weather observed at this time

METAR text: TNCE 232155Z AUTO 06008KT 030V090 //// // ///////// 26/19 Q1013 RE//
Conditions at: TNCE (FDR ARPT/ORANJES, AN) observed 2155 UTC 23 April 2019
Temperature: 26.0°C (79°F)
Dewpoint: 19.0°C (66°F) [RH = 65%]
Pressure (altimeter): 29.91 inches Hg (1013.0 mb)
Winds: from the ENE (60 degrees) at 9 MPH (8 knots; 4.1 m/s)
Visibility: missing
Ceiling: unknown
Clouds: missing
Weather: no significant weather observed at this time

METAR text: TNCE 232055Z AUTO 08008KT 030V120 //// // ///////// 27/18 Q1013 RE//
Conditions at: TNCE (FDR ARPT/ORANJES, AN) observed 2055 UTC 23 April 2019
Temperature: 27.0°C (81°F)
Dewpoint: 18.0°C (64°F) [RH = 58%]
Pressure (altimeter): 29.91 inches Hg (1013.0 mb)
Winds: from the E (80 degrees) at 9 MPH (8 knots; 4.1 m/s)
Visibility: missing
Ceiling: unknown
Clouds: missing
Weather: no significant weather observed at this time

METAR text: TNCE 231955Z AUTO 07009KT 020V130 //// // ///////// 28/18 Q1012 RE//
Conditions at: TNCE (FDR ARPT/ORANJES, AN) observed 1955 UTC 23 April 2019
Temperature: 28.0°C (82°F)
Dewpoint: 18.0°C (64°F) [RH = 55%]
Pressure (altimeter): 29.88 inches Hg (1012.0 mb)
Winds: from the ENE (70 degrees) at 10 MPH (9 knots; 4.6 m/s)
Visibility: missing
Ceiling: unknown
Clouds: missing
Weather: no significant weather observed at this time

METAR text: TNCE 231855Z AUTO 07009KT 020V110 //// // ///////// 28/19 Q1013 RE//
Conditions at: TNCE (FDR ARPT/ORANJES, AN) observed 1855 UTC 23 April 2019
Temperature: 28.0°C (82°F)
Dewpoint: 19.0°C (66°F) [RH = 58%]
Pressure (altimeter): 29.91 inches Hg (1013.0 mb)
Winds: from the ENE (70 degrees) at 10 MPH (9 knots; 4.6 m/s)
Visibility: missing
Ceiling: unknown
Clouds: missing
Weather: no significant weather observed at this time

METAR text: TNCE 231755Z AUTO 06009KT 020V100 //// // ///////// 29/19 Q1013 RE//
Conditions at: TNCE (FDR ARPT/ORANJES, AN) observed 1755 UTC 23 April 2019
Temperature: 29.0°C (84°F)
Dewpoint: 19.0°C (66°F) [RH = 55%]
Pressure (altimeter): 29.91 inches Hg (1013.0 mb)
Winds: from the ENE (60 degrees) at 10 MPH (9 knots; 4.6 m/s)
Visibility: missing
Ceiling: unknown
Clouds: missing
Weather: no significant weather observed at this time

METAR text: TNCE 231655Z AUTO 08009KT 020V120 //// // ///////// 28/19 Q1014 RE//
Conditions at: TNCE (FDR ARPT/ORANJES, AN) observed 1655 UTC 23 April 2019
Temperature: 28.0°C (82°F)
Dewpoint: 19.0°C (66°F) [RH = 58%]
Pressure (altimeter): 29.94 inches Hg (1014.0 mb)
Winds: from the E (80 degrees) at 10 MPH (9 knots; 4.6 m/s)
Visibility: missing
Ceiling: unknown
Clouds: missing
Weather: no significant weather observed at this time

METAR text: TNCE 231555Z AUTO 07011KT 030V110 //// // ///////// 29/19 Q1015 RE//
Conditions at: TNCE (FDR ARPT/ORANJES, AN) observed 1555 UTC 23 April 2019
Temperature: 29.0°C (84°F)
Dewpoint: 19.0°C (66°F) [RH = 55%]
Pressure (altimeter): 29.97 inches Hg (1015.0 mb)
Winds: from the ENE (70 degrees) at 13 MPH (11 knots; 5.7 m/s)
Visibility: missing
Ceiling: unknown
Clouds: missing
Weather: no significant weather observed at this time

METAR text: TNCE 231455Z AUTO 07010KT 040V120 //// // ///////// 28/19 Q1015 RE//
Conditions at: TNCE (FDR ARPT/ORANJES, AN) observed 1455 UTC 23 April 2019
Temperature: 28.0°C (82°F)
Dewpoint: 19.0°C (66°F) [RH = 58%]
Pressure (altimeter): 29.97 inches Hg (1015.0 mb)
Winds: from the ENE (70 degrees) at 12 MPH (10 knots; 5.1 m/s)
Visibility: missing
Ceiling: unknown
Clouds: missing
Weather: no significant weather observed at this time

METAR text: TNCE 231355Z AUTO 08010KT 020V110 //// // ///////// 28/19 Q1015 RE//
Conditions at: TNCE (FDR ARPT/ORANJES, AN) observed 1355 UTC 23 April 2019
Temperature: 28.0°C (82°F)
Dewpoint: 19.0°C (66°F) [RH = 58%]
Pressure (altimeter): 29.97 inches Hg (1015.0 mb)
Winds: from the E (80 degrees) at 12 MPH (10 knots; 5.1 m/s)
Visibility: missing
Ceiling: unknown
Clouds: missing
Weather: no significant weather observed at this time

METAR text: TNCE 231255Z AUTO 07011KT 030V110 //// // ///////// 27/19 Q1015 RE//
Conditions at: TNCE (FDR ARPT/ORANJES, AN) observed 1255 UTC 23 April 2019
Temperature: 27.0°C (81°F)
Dewpoint: 19.0°C (66°F) [RH = 62%]
Pressure (altimeter): 29.97 inches Hg (1015.0 mb)
Winds: from the ENE (70 degrees) at 13 MPH (11 knots; 5.7 m/s)
Visibility: missing
Ceiling: unknown
Clouds: missing
Weather: no significant weather observed at this time